Seasurfer — 9HA4521 — position and weather

sailwx.info

Track history (hours):
 
Tides and Currents Weather Stations Pressure Air Temp Water Temp Dewpoint Dewpoint Depression Visibility Wind Speed Wind Dir Waves Ship Positions

Seasurfer

Last reported at 2017-Nov-18 16:29 UTC. Time now 2017-Nov-20 20:57 UTC.
Position N 29°29' W 094°52'.

Length 180 m; draft 9.9 m.

Type: Ship (hazmat cat D). MMSI: 248128000.

Date/timePositionNaut miles runAvg speedWind from/ knotsBaromVisibWave heightAir tempDewpointWater temp
2017-Nov-18 16:29N 29°29' W 094°52'511.3
2017-Nov-18 16:00N 29°33' W 094°55'611.0
2017-Nov-18 15:30N 29°38' W 094°58'4 9.0
2017-Nov-18 15:00N 29°42' W 095°01'3 6.5
2017-Nov-18 14:31N 29°44' W 095°03'2 4.4
2017-Nov-18 13:58N 29°45' W 095°06'1 0.0
2017-Nov-16 22:06N 29°44' W 095°08'0 0.0
2017-Nov-16 17:27N 29°44' W 095°08'0 0.0
2017-Nov-16 16:28N 29°44' W 095°08'1 2.6
2017-Nov-16 16:01N 29°45' W 095°06'2 4.9
2017-Nov-16 15:31N 29°44' W 095°04'4 7.0
2017-Nov-16 15:01N 29°42' W 095°00'5 9.3
2017-Nov-16 14:31N 29°38' W 094°58'713.2
2017-Nov-16 14:01N 29°32' W 094°54'713.1
2017-Nov-16 13:31N 29°27' W 094°50'  
Track history (hours):
 
Tides and Currents Weather Stations Pressure Air Temp Water Temp Dewpoint Dewpoint Depression Visibility Wind Speed Wind Dir Waves Ship Positions

Seasurfer

Last reported at 2017-Nov-18 16:29 UTC. Time now 2017-Nov-20 20:58 UTC.
Position N 29°29' W 094°52'.

Length 180 m; draft 9.9 m.

Type: Ship (hazmat cat D). MMSI: 248128000.

Date/timePositionNaut miles runAvg speedWind from/ knotsBaromVisibWave heightAir tempDewpointWater temp
2017-Nov-18 16:29N 29°29' W 094°52'511.3
2017-Nov-18 16:00N 29°33' W 094°55'611.0
2017-Nov-18 15:30N 29°38' W 094°58'4 9.0
2017-Nov-18 15:00N 29°42' W 095°01'3 6.5
2017-Nov-18 14:31N 29°44' W 095°03'2 4.4
2017-Nov-18 13:58N 29°45' W 095°06'1 0.0
2017-Nov-16 22:06N 29°44' W 095°08'0 0.0
2017-Nov-16 17:27N 29°44' W 095°08'0 0.0
2017-Nov-16 16:28N 29°44' W 095°08'1 2.6
2017-Nov-16 16:01N 29°45' W 095°06'2 4.9
2017-Nov-16 15:31N 29°44' W 095°04'4 7.0
2017-Nov-16 15:01N 29°42' W 095°00'5 9.3
2017-Nov-16 14:31N 29°38' W 094°58'713.2
2017-Nov-16 14:01N 29°32' W 094°54'713.1
2017-Nov-16 13:31N 29°27' W 094°50'  

Dump ship's entire track history